createdAt,value
2022-12-01T00:01:16.588Z,18.58
2022-12-01T00:03:43.651Z,19.58
2022-12-01T00:06:19.979Z,18.00
2022-12-01T00:09:07.846Z,17.17
2022-12-01T00:11:37.142Z,16.52
2022-12-01T00:14:04.674Z,17.00
2022-12-01T00:16:32.683Z,18.80
2022-12-01T00:19:00.165Z,15.50
2022-12-01T00:21:27.939Z,14.73
2022-12-01T00:23:57.408Z,16.77
2022-12-01T00:26:26.115Z,16.75
2022-12-01T00:28:55.367Z,17.50
2022-12-01T00:31:23.421Z,14.27
2022-12-01T00:33:50.544Z,13.50
2022-12-01T00:36:17.914Z,13.85
2022-12-01T00:38:44.973Z,13.55
2022-12-01T00:41:12.133Z,14.13
2022-12-01T00:43:39.830Z,15.05
2022-12-01T00:46:07.146Z,14.88
2022-12-01T00:48:34.103Z,15.63
2022-12-01T00:51:01.579Z,16.17
2022-12-01T00:53:28.712Z,13.73
2022-12-01T00:55:56.269Z,14.27
2022-12-01T00:58:23.792Z,14.50
2022-12-01T01:01:02.170Z,12.82
2022-12-01T01:03:30.841Z,13.52
2022-12-01T01:06:05.148Z,15.18
2022-12-01T01:08:32.242Z,10.95
2022-12-01T01:11:01.395Z,13.52
2022-12-01T01:13:29.061Z,12.15
2022-12-01T01:16:02.744Z,11.88
2022-12-01T01:21:03.213Z,11.65
2022-12-01T01:23:30.328Z,13.30
2022-12-01T01:26:19.204Z,11.18
2022-12-01T01:28:47.542Z,11.80
2022-12-01T01:31:18.155Z,12.48
2022-12-01T01:33:45.487Z,11.15
2022-12-01T01:36:13.530Z,11.23
2022-12-01T01:38:40.424Z,10.43
2022-12-01T01:41:08.420Z,12.30
2022-12-01T01:43:50.557Z,11.98
2022-12-01T01:46:19.446Z,11.63
2022-12-01T01:49:00.218Z,10.05
2022-12-01T01:51:35.212Z,10.82
2022-12-01T01:54:20.468Z,11.05
2022-12-01T01:56:51.074Z,12.07
2022-12-01T01:59:23.266Z,11.32
2022-12-01T02:02:06.177Z,10.65
2022-12-01T02:04:36.099Z,10.13
2022-12-01T02:07:04.846Z,9.23
2022-12-01T02:09:31.774Z,11.60
2022-12-01T02:12:42.452Z,10.63
2022-12-01T02:15:37.871Z,10.30
2022-12-01T02:18:20.352Z,10.02
2022-12-01T02:20:59.158Z,10.02
2022-12-01T02:23:29.413Z,13.07
2022-12-01T02:26:16.179Z,10.65
2022-12-01T02:28:53.412Z,11.25
2022-12-01T02:31:43.088Z,11.48
2022-12-01T02:34:17.983Z,11.10
2022-12-01T02:36:57.973Z,11.23
2022-12-01T02:39:53.457Z,10.30
2022-12-01T02:42:49.537Z,11.35
2022-12-01T02:45:41.740Z,11.70
2022-12-01T02:48:14.974Z,10.88
2022-12-01T02:50:44.303Z,12.60
2022-12-01T02:53:14.281Z,10.18
2022-12-01T02:55:53.174Z,10.75
2022-12-01T02:58:20.757Z,10.52
2022-12-01T03:01:14.222Z,10.80
2022-12-01T03:04:02.028Z,10.98
2022-12-01T03:06:59.659Z,12.68
2022-12-01T03:10:07.311Z,10.65
2022-12-01T03:12:55.919Z,10.98
2022-12-01T03:15:37.872Z,10.98
2022-12-01T03:18:22.868Z,11.23
2022-12-01T03:21:24.211Z,11.32
2022-12-01T03:23:56.425Z,12.27
2022-12-01T03:26:25.418Z,11.32
2022-12-01T03:29:03.707Z,10.55
2022-12-01T03:31:35.344Z,11.27
2022-12-01T03:34:29.378Z,11.50
2022-12-01T03:37:03.734Z,11.63
2022-12-01T03:39:34.554Z,12.57
2022-12-01T03:42:17.137Z,11.45
2022-12-01T03:44:53.454Z,10.98
2022-12-01T03:47:32.028Z,11.63
2022-12-01T03:50:00.505Z,10.82
2022-12-01T03:53:19.420Z,11.45
2022-12-01T03:55:52.218Z,11.40
2022-12-01T03:58:24.098Z,11.90
2022-12-01T04:00:55.487Z,10.85
2022-12-01T04:03:25.342Z,10.25
2022-12-01T04:05:52.762Z,12.35
2022-12-01T04:08:19.818Z,11.98
2022-12-01T04:10:47.298Z,11.85
2022-12-01T04:13:22.931Z,11.27
2022-12-01T04:15:51.590Z,11.02
2022-12-01T04:18:19.236Z,10.77
2022-12-01T04:20:47.928Z,10.98
2022-12-01T04:23:34.807Z,10.52
2022-12-01T04:26:04.715Z,9.60
2022-12-01T04:28:31.746Z,9.73
2022-12-01T04:30:58.946Z,9.55
2022-12-01T04:33:25.832Z,10.43
2022-12-01T04:35:58.100Z,10.48
2022-12-01T04:38:30.241Z,9.10
2022-12-01T04:43:25.122Z,9.82
2022-12-01T04:45:52.517Z,10.05
2022-12-01T04:48:19.375Z,9.65
2022-12-01T04:50:49.105Z,9.27
2022-12-01T04:53:15.989Z,10.98
2022-12-01T04:55:43.198Z,9.85
2022-12-01T04:58:10.070Z,8.20
2022-12-01T05:00:37.952Z,12.73
2022-12-01T05:03:05.334Z,26.95
2022-12-01T05:05:32.728Z,19.35
2022-12-01T05:07:59.737Z,12.45
2022-12-01T05:10:27.833Z,11.85
2022-12-01T05:12:55.221Z,9.55
2022-12-01T05:15:22.584Z,8.73
2022-12-01T05:17:49.565Z,9.38
2022-12-01T05:20:39.485Z,8.50
2022-12-01T05:23:07.573Z,8.15
2022-12-01T05:25:37.245Z,8.07
2022-12-01T05:28:05.291Z,7.72
2022-12-01T05:30:32.496Z,8.95
2022-12-01T05:32:59.558Z,8.40
2022-12-01T05:35:27.120Z,8.85
2022-12-01T05:37:54.009Z,7.65
2022-12-01T05:40:21.291Z,7.10
2022-12-01T05:42:48.189Z,8.45
2022-12-01T05:45:15.468Z,8.18
2022-12-01T05:47:42.414Z,7.88
2022-12-01T05:50:10.428Z,7.72
2022-12-01T05:52:37.281Z,8.55
2022-12-01T05:55:05.679Z,8.93
2022-12-01T05:57:33.613Z,9.02
2022-12-01T06:00:00.999Z,8.50
2022-12-01T06:02:27.884Z,8.95
2022-12-01T06:04:55.154Z,9.98
2022-12-01T06:07:23.585Z,10.30
2022-12-01T06:09:51.460Z,11.13
2022-12-01T06:12:19.195Z,10.48
2022-12-01T06:14:46.414Z,9.30
2022-12-01T06:17:13.248Z,9.63
2022-12-01T06:19:40.681Z,9.63
2022-12-01T06:22:07.541Z,7.82
2022-12-01T06:24:34.947Z,9.10
2022-12-01T06:27:01.939Z,8.70
2022-12-01T06:29:29.329Z,9.32
2022-12-01T06:31:56.181Z,10.02
2022-12-01T06:34:23.594Z,9.30
2022-12-01T06:36:50.481Z,8.52
2022-12-01T06:39:17.980Z,9.05
2022-12-01T06:41:44.900Z,9.50
2022-12-01T06:44:12.297Z,9.52
2022-12-01T06:46:39.353Z,9.55
2022-12-01T06:49:06.960Z,10.27
2022-12-01T06:51:34.238Z,10.43
2022-12-01T06:54:05.487Z,11.23
2022-12-01T06:56:32.697Z,10.93
2022-12-01T06:59:00.616Z,9.43
2022-12-01T07:01:28.337Z,11.80
2022-12-01T07:03:58.927Z,10.63
2022-12-01T07:06:25.756Z,10.98
2022-12-01T07:08:53.040Z,11.00
2022-12-01T07:11:19.870Z,11.15
2022-12-01T07:13:49.441Z,11.48
2022-12-01T07:16:16.619Z,11.48
2022-12-01T07:18:45.119Z,11.70
2022-12-01T07:21:13.833Z,12.15
2022-12-01T07:23:41.447Z,11.20
2022-12-01T07:26:11.822Z,11.93
2022-12-01T07:28:39.626Z,10.90
2022-12-01T07:31:07.729Z,12.73
2022-12-01T07:33:35.882Z,11.07
2022-12-01T07:36:03.400Z,10.88
2022-12-01T07:38:31.903Z,11.80
2022-12-01T07:41:04.298Z,14.27
2022-12-01T07:43:32.865Z,12.32
2022-12-01T07:46:10.080Z,12.55
2022-12-01T07:48:39.720Z,11.40
2022-12-01T07:51:12.030Z,12.23
2022-12-01T07:53:39.532Z,13.40
2022-12-01T07:56:08.847Z,13.13
2022-12-01T07:58:36.960Z,13.75
2022-12-01T08:01:15.311Z,12.88
2022-12-01T08:03:43.391Z,13.50
2022-12-01T08:06:11.420Z,13.10
2022-12-01T08:08:41.079Z,14.27
2022-12-01T08:11:15.039Z,13.55
2022-12-01T08:13:43.216Z,12.90
2022-12-01T08:16:12.654Z,12.95
2022-12-01T08:18:41.301Z,13.20
2022-12-01T08:21:10.328Z,11.80
2022-12-01T08:23:37.545Z,13.07
2022-12-01T08:26:07.203Z,12.18
2022-12-01T08:28:37.274Z,12.65
2022-12-01T08:31:09.676Z,11.77
2022-12-01T08:33:37.365Z,11.63
2022-12-01T08:36:05.532Z,12.32
2022-12-01T08:38:33.392Z,12.85
2022-12-01T08:41:05.620Z,12.40
2022-12-01T08:46:20.303Z,12.05
2022-12-01T08:48:47.737Z,12.27
2022-12-01T08:51:17.204Z,11.50
2022-12-01T08:53:46.974Z,11.05
2022-12-01T08:56:24.085Z,12.13
2022-12-01T08:58:51.772Z,10.07
2022-12-01T09:01:19.167Z,11.55
2022-12-01T09:03:46.616Z,11.32
2022-12-01T09:06:23.071Z,10.40
2022-12-01T09:08:50.220Z,9.68
2022-12-01T09:11:19.324Z,10.60
2022-12-01T09:13:52.941Z,9.52
2022-12-01T09:16:20.039Z,10.30
2022-12-01T09:18:48.046Z,9.00
2022-12-01T09:21:26.731Z,8.90
2022-12-01T09:23:54.638Z,9.35
2022-12-01T09:26:22.151Z,9.10
2022-12-01T09:28:54.027Z,9.10
2022-12-01T09:31:23.409Z,10.40
2022-12-01T09:33:59.367Z,8.95
2022-12-01T09:36:26.536Z,8.63
2022-12-01T09:38:54.129Z,9.13
2022-12-01T09:41:45.379Z,9.40
2022-12-01T09:44:40.529Z,10.02
2022-12-01T09:47:28.970Z,10.15
2022-12-01T09:50:14.678Z,10.50
2022-12-01T09:52:48.479Z,9.95
2022-12-01T09:55:18.541Z,8.68
2022-12-01T09:57:50.523Z,49.45
2022-12-01T10:00:25.265Z,20.40
2022-12-01T10:03:20.474Z,10.13
2022-12-01T10:06:32.050Z,16.67
2022-12-01T10:09:05.150Z,9.02
2022-12-01T10:11:38.953Z,8.38
2022-12-01T10:14:12.989Z,8.18
2022-12-01T10:17:01.636Z,8.35
2022-12-01T10:19:54.828Z,6.38
2022-12-01T10:22:56.233Z,7.60
2022-12-01T10:25:26.406Z,8.32
2022-12-01T10:28:41.294Z,8.18
2022-12-01T10:31:18.251Z,7.72
2022-12-01T10:33:58.585Z,7.57
2022-12-01T10:36:26.611Z,6.60
2022-12-01T10:38:54.310Z,6.90
2022-12-01T10:41:23.817Z,7.32
2022-12-01T10:43:54.332Z,8.15
2022-12-01T10:46:27.690Z,8.43
2022-12-01T10:48:59.979Z,10.13
2022-12-01T10:51:28.009Z,9.73
2022-12-01T10:56:42.535Z,7.75
2022-12-01T10:59:27.657Z,7.38
2022-12-01T11:01:55.184Z,7.07
2022-12-01T11:04:45.719Z,5.30
2022-12-01T11:07:22.860Z,3.85
2022-12-01T11:09:59.086Z,2.70
2022-12-01T11:12:26.067Z,2.50
2022-12-01T11:14:55.568Z,3.38
2022-12-01T11:17:30.881Z,2.67
2022-12-01T11:19:59.020Z,2.75
2022-12-01T11:22:32.544Z,3.58
2022-12-01T11:25:05.589Z,4.13
2022-12-01T11:27:52.790Z,4.18
2022-12-01T11:30:25.825Z,5.03
2022-12-01T11:32:58.059Z,3.25
2022-12-01T11:35:30.254Z,3.15
2022-12-01T11:38:28.283Z,4.75
2022-12-01T11:40:51.168Z,4.43
2022-12-01T11:43:27.534Z,4.28
2022-12-01T11:45:57.553Z,6.25
2022-12-01T11:48:30.143Z,5.45
2022-12-01T11:51:07.757Z,4.78
2022-12-01T11:53:37.455Z,5.72
2022-12-01T11:56:14.369Z,5.60
2022-12-01T11:58:42.973Z,5.30
2022-12-01T12:01:36.028Z,5.88
2022-12-01T12:04:44.565Z,7.95
2022-12-01T12:07:32.814Z,7.80
2022-12-01T12:10:24.567Z,8.50
2022-12-01T12:13:07.379Z,6.88
2022-12-01T12:16:02.019Z,6.18
2022-12-01T12:18:54.639Z,5.07
2022-12-01T12:21:39.985Z,5.22
2022-12-01T12:24:34.706Z,6.57
2022-12-01T12:27:19.906Z,9.93
2022-12-01T12:30:15.750Z,6.45
2022-12-01T12:33:04.629Z,6.88
2022-12-01T12:36:02.050Z,5.80
2022-12-01T12:38:40.768Z,4.88
2022-12-01T12:41:22.629Z,5.78
2022-12-01T12:44:01.344Z,5.15
2022-12-01T12:46:31.291Z,5.22
2022-12-01T12:49:28.964Z,5.50
2022-12-01T12:52:08.103Z,5.22
2022-12-01T12:54:53.213Z,6.55
2022-12-01T12:57:29.478Z,7.35
2022-12-01T13:00:05.475Z,7.13
2022-12-01T13:02:46.844Z,7.18
2022-12-01T13:05:36.223Z,6.00
2022-12-01T13:08:11.325Z,6.50
2022-12-01T13:10:58.053Z,6.82
2022-12-01T13:13:33.925Z,6.90
2022-12-01T13:16:04.452Z,6.90
2022-12-01T13:18:54.982Z,7.45
2022-12-01T13:21:24.150Z,7.55
2022-12-01T13:23:52.662Z,7.72
2022-12-01T13:26:21.480Z,8.65
2022-12-01T13:28:54.883Z,8.70
2022-12-01T13:31:22.401Z,8.45
2022-12-01T13:34:04.165Z,7.40
2022-12-01T13:36:48.173Z,7.53
2022-12-01T13:39:28.896Z,8.82
2022-12-01T13:41:58.984Z,9.00
2022-12-01T13:44:48.428Z,9.25
2022-12-01T13:47:57.014Z,9.50
2022-12-01T13:50:36.312Z,8.52
2022-12-01T13:53:36.143Z,9.68
2022-12-01T13:56:03.202Z,10.20
2022-12-01T13:58:33.012Z,9.05
2022-12-01T14:01:23.476Z,8.38
2022-12-01T14:04:03.659Z,10.40
2022-12-01T14:06:52.457Z,10.20
2022-12-01T14:09:40.750Z,8.68
2022-12-01T14:12:19.174Z,9.13
2022-12-01T14:15:20.319Z,9.98
2022-12-01T14:17:57.820Z,8.68
2022-12-01T14:20:24.941Z,9.80
2022-12-01T14:23:13.166Z,9.88
2022-12-01T14:25:42.296Z,9.25
2022-12-01T14:28:16.827Z,9.30
2022-12-01T14:30:46.586Z,9.52
2022-12-01T14:33:39.421Z,9.82
2022-12-01T14:36:31.759Z,8.80
2022-12-01T14:39:01.572Z,9.83
2022-12-01T14:41:43.196Z,9.23
2022-12-01T14:44:19.708Z,12.05
2022-12-01T14:47:05.578Z,9.77
2022-12-01T14:49:39.396Z,10.32
2022-12-01T14:52:24.356Z,10.50
2022-12-01T14:54:52.961Z,10.40
2022-12-01T14:57:24.667Z,11.10
2022-12-01T15:00:15.192Z,13.45
2022-12-01T15:03:07.768Z,11.18
2022-12-01T15:05:41.131Z,10.70
2022-12-01T15:11:25.415Z,10.38
2022-12-01T15:13:54.943Z,11.70
2022-12-01T15:16:25.239Z,12.55
2022-12-01T15:18:52.895Z,13.43
2022-12-01T15:21:27.355Z,11.20
2022-12-01T15:24:01.807Z,14.05
2022-12-01T15:26:32.510Z,12.93
2022-12-01T15:29:17.257Z,13.52
2022-12-01T15:31:47.949Z,14.50
2022-12-01T15:34:20.788Z,12.57
2022-12-01T15:36:48.585Z,14.52
2022-12-01T15:39:21.863Z,14.32
2022-12-01T15:41:54.015Z,14.05
2022-12-01T15:44:27.580Z,13.45
2022-12-01T15:46:54.849Z,13.52
2022-12-01T15:49:32.789Z,14.73
2022-12-01T15:52:09.318Z,13.38
2022-12-01T15:54:37.026Z,13.43
2022-12-01T15:57:05.783Z,15.45
2022-12-01T15:59:36.629Z,15.13
2022-12-01T16:02:19.769Z,12.93
2022-12-01T16:04:47.892Z,15.20
2022-12-01T16:07:15.658Z,15.88
2022-12-01T16:09:58.309Z,15.43
2022-12-01T16:12:33.060Z,15.98
2022-12-01T16:15:10.058Z,15.48
2022-12-01T16:17:46.704Z,13.95
2022-12-01T16:20:24.799Z,12.50
2022-12-01T16:22:59.258Z,13.15
2022-12-01T16:25:47.753Z,13.23
2022-12-01T16:28:31.176Z,14.25
2022-12-01T16:30:58.561Z,11.45
2022-12-01T16:33:28.308Z,13.57
2022-12-01T16:35:55.740Z,14.00
2022-12-01T16:38:24.791Z,14.20
2022-12-01T16:41:00.514Z,13.38
2022-12-01T16:43:29.721Z,14.35
2022-12-01T16:46:03.166Z,12.68
2022-12-01T16:48:31.620Z,13.77
2022-12-01T16:51:03.028Z,15.38
2022-12-01T16:53:30.664Z,14.68
2022-12-01T16:56:00.396Z,14.25
2022-12-01T16:58:28.285Z,16.85
2022-12-01T17:00:55.259Z,16.27
2022-12-01T17:03:27.912Z,14.40
2022-12-01T17:05:55.303Z,16.90
2022-12-01T17:08:22.760Z,16.13
2022-12-01T17:10:50.643Z,16.95
2022-12-01T17:13:19.389Z,15.85
2022-12-01T17:15:48.936Z,16.70
2022-12-01T17:18:18.101Z,14.45
2022-12-01T17:20:45.443Z,16.38
2022-12-01T17:23:13.345Z,15.93
2022-12-01T17:25:41.887Z,15.13
2022-12-01T17:28:09.355Z,18.13
2022-12-01T17:30:36.992Z,17.10
2022-12-01T17:33:04.747Z,15.00
2022-12-01T17:35:31.655Z,24.52
2022-12-01T17:37:59.062Z,17.63
2022-12-01T17:40:25.975Z,15.68
2022-12-01T17:42:53.428Z,14.93
2022-12-01T17:45:20.477Z,15.45
2022-12-01T17:47:47.700Z,15.05
2022-12-01T17:50:15.075Z,17.17
2022-12-01T17:52:42.270Z,15.57
2022-12-01T17:55:09.606Z,17.95
2022-12-01T17:57:36.800Z,15.98
2022-12-01T18:00:04.927Z,16.67
2022-12-01T18:02:32.155Z,14.68
2022-12-01T18:04:59.223Z,16.88
2022-12-01T18:07:26.772Z,15.48
2022-12-01T18:09:53.816Z,14.02
2022-12-01T18:12:21.215Z,13.93
2022-12-01T18:14:48.333Z,14.60
2022-12-01T18:17:15.843Z,15.25
2022-12-01T18:19:42.706Z,16.08
2022-12-01T18:22:09.918Z,14.68
2022-12-01T18:24:36.892Z,15.07
2022-12-01T18:27:04.204Z,14.25
2022-12-01T18:29:31.150Z,15.00
2022-12-01T18:31:59.843Z,13.30
2022-12-01T18:34:29.614Z,14.43
2022-12-01T18:36:57.480Z,14.23
2022-12-01T18:39:24.619Z,12.90
2022-12-01T18:41:52.189Z,14.38
2022-12-01T18:44:19.050Z,11.95
2022-12-01T18:46:46.868Z,13.68
2022-12-01T18:49:13.954Z,12.95
2022-12-01T18:51:41.217Z,14.88
2022-12-01T18:54:10.756Z,13.80
2022-12-01T18:56:38.171Z,12.95
2022-12-01T18:59:07.625Z,13.27
2022-12-01T19:01:37.323Z,13.10
2022-12-01T19:04:05.814Z,13.43
2022-12-01T19:06:34.606Z,12.95
2022-12-01T19:09:03.079Z,13.15
2022-12-01T19:11:30.773Z,12.88
2022-12-01T19:13:58.149Z,11.35
2022-12-01T19:16:25.758Z,11.40
2022-12-01T19:18:52.765Z,11.80
2022-12-01T19:21:20.656Z,14.18
2022-12-01T19:23:48.586Z,14.77
2022-12-01T19:26:18.556Z,16.08
2022-12-01T19:28:46.120Z,20.02
2022-12-01T19:31:24.502Z,13.75
2022-12-01T19:33:53.482Z,12.70
2022-12-01T19:36:23.965Z,13.00
2022-12-01T19:38:51.025Z,11.65
2022-12-01T19:41:25.105Z,13.52
2022-12-01T19:43:52.913Z,13.43
2022-12-01T19:46:22.358Z,17.67
2022-12-01T19:48:55.331Z,16.52
2022-12-01T19:51:25.292Z,12.18
2022-12-01T19:53:54.046Z,12.20
2022-12-01T19:56:22.115Z,10.93
2022-12-01T19:58:49.731Z,11.15
2022-12-01T20:01:18.051Z,13.90
2022-12-01T20:03:46.895Z,11.30
2022-12-01T20:06:20.849Z,12.00
2022-12-01T20:08:47.840Z,12.05
2022-12-01T20:11:15.493Z,11.23
2022-12-01T20:13:44.294Z,10.20
2022-12-01T20:16:23.590Z,11.43
2022-12-01T20:18:51.760Z,10.90
2022-12-01T20:21:24.442Z,10.23
2022-12-01T20:23:58.021Z,11.15
2022-12-01T20:26:30.805Z,10.77
2022-12-01T20:29:05.258Z,10.02
2022-12-01T20:31:33.748Z,10.52
2022-12-01T20:34:03.602Z,10.20
2022-12-01T20:36:31.352Z,11.52
2022-12-01T20:38:58.351Z,12.13
2022-12-01T20:41:25.819Z,14.05
2022-12-01T20:43:52.764Z,11.88
2022-12-01T20:46:20.365Z,11.70
2022-12-01T20:48:47.316Z,11.77
2022-12-01T20:51:15.254Z,12.77
2022-12-01T20:53:59.710Z,11.15
2022-12-01T20:56:30.197Z,11.05
2022-12-01T20:58:58.285Z,9.88
2022-12-01T21:01:25.853Z,10.18
2022-12-01T21:03:53.452Z,9.70
2022-12-01T21:06:21.246Z,8.75
2022-12-01T21:08:49.644Z,10.77
2022-12-01T21:11:19.148Z,10.35
2022-12-01T21:13:46.961Z,10.38
2022-12-01T21:16:16.882Z,11.88
2022-12-01T21:18:53.070Z,9.68
2022-12-01T21:21:27.702Z,8.77
2022-12-01T21:24:00.840Z,8.90
2022-12-01T21:26:28.009Z,8.52
2022-12-01T21:28:58.651Z,8.10
2022-12-01T21:31:26.853Z,9.10
2022-12-01T21:33:54.074Z,10.40
2022-12-01T21:36:24.021Z,9.10
2022-12-01T21:38:56.216Z,9.20
2022-12-01T21:41:26.562Z,9.23
2022-12-01T21:44:01.037Z,9.38
2022-12-01T21:46:29.159Z,8.45
2022-12-01T21:48:56.068Z,9.48
2022-12-01T21:51:24.961Z,10.02
2022-12-01T21:53:55.616Z,10.30
2022-12-01T21:56:25.893Z,8.55
2022-12-01T21:58:56.980Z,10.05
2022-12-01T22:01:29.647Z,9.57
2022-12-01T22:04:02.361Z,9.27
2022-12-01T22:09:25.513Z,9.13
2022-12-01T22:11:58.661Z,10.05
2022-12-01T22:14:33.050Z,10.23
2022-12-01T22:17:14.566Z,9.57
2022-12-01T22:19:46.652Z,10.05
2022-12-01T22:22:16.650Z,10.35
2022-12-01T22:25:02.070Z,10.35
2022-12-01T22:27:34.374Z,9.10
2022-12-01T22:30:13.374Z,10.18
2022-12-01T22:32:57.070Z,11.70
2022-12-01T22:35:48.288Z,12.93
2022-12-01T22:38:35.736Z,12.68
2022-12-01T22:41:15.768Z,13.80
2022-12-01T22:43:47.495Z,12.63
2022-12-01T22:46:33.755Z,15.65
2022-12-01T22:49:20.757Z,14.93
2022-12-01T22:52:07.087Z,15.68
2022-12-01T22:54:46.211Z,13.63
2022-12-01T22:57:26.406Z,13.65
2022-12-01T22:59:55.137Z,14.27
2022-12-01T23:02:25.222Z,14.63
2022-12-01T23:04:57.156Z,12.18
2022-12-01T23:07:28.869Z,13.93
2022-12-01T23:10:16.447Z,14.38
2022-12-01T23:12:44.817Z,12.48
2022-12-01T23:15:33.773Z,12.15
2022-12-01T23:18:12.320Z,12.55
2022-12-01T23:20:41.347Z,13.30
2022-12-01T23:23:14.347Z,10.77
2022-12-01T23:25:42.507Z,12.77
2022-12-01T23:28:10.866Z,11.77
2022-12-01T23:30:41.779Z,10.70
2022-12-01T23:33:17.632Z,12.32
2022-12-01T23:35:57.578Z,11.05
2022-12-01T23:38:29.859Z,10.70
2022-12-01T23:41:00.703Z,10.75
2022-12-01T23:43:37.344Z,11.60
2022-12-01T23:46:17.911Z,11.35
2022-12-01T23:49:04.474Z,12.02
2022-12-01T23:51:36.956Z,11.93
2022-12-01T23:54:14.041Z,12.45
2022-12-01T23:56:41.837Z,11.65
2022-12-01T23:59:13.375Z,11.82
